createdAt,value
2023-05-13T00:02:13.959Z,16.30
2023-05-13T00:04:40.445Z,16.30
2023-05-13T00:07:06.908Z,16.30
2023-05-13T00:09:33.389Z,16.20
2023-05-13T00:11:59.774Z,16.20
2023-05-13T00:14:26.171Z,16.20
2023-05-13T00:16:52.601Z,16.10
2023-05-13T00:19:19.096Z,16.10
2023-05-13T00:21:45.846Z,16.10
2023-05-13T00:24:12.242Z,16.10
2023-05-13T00:26:38.664Z,16.10
2023-05-13T00:29:05.097Z,16.10
2023-05-13T00:31:31.515Z,16.00
2023-05-13T00:33:57.935Z,16.00
2023-05-13T00:36:24.342Z,16.00
2023-05-13T00:38:50.819Z,15.90
2023-05-13T00:41:17.275Z,15.90
2023-05-13T00:43:43.722Z,15.80
2023-05-13T00:46:10.175Z,15.80
2023-05-13T00:48:36.865Z,15.70
2023-05-13T00:51:03.515Z,15.60
2023-05-13T00:53:29.976Z,15.60
2023-05-13T00:55:56.427Z,15.50
2023-05-13T00:58:22.896Z,15.40
2023-05-13T01:00:49.386Z,15.30
2023-05-13T01:03:15.950Z,15.30
2023-05-13T01:05:42.495Z,15.30
2023-05-13T01:08:08.867Z,15.30
2023-05-13T01:10:35.330Z,15.20
2023-05-13T01:13:01.724Z,15.20
2023-05-13T01:15:28.232Z,15.10
2023-05-13T01:17:54.724Z,15.10
2023-05-13T01:20:21.398Z,15.10
2023-05-13T01:22:47.942Z,15.10
2023-05-13T01:25:14.372Z,15.20
2023-05-13T01:27:40.812Z,15.20
2023-05-13T01:30:07.268Z,15.20
2023-05-13T01:32:33.801Z,15.10
2023-05-13T01:35:00.222Z,15.20
2023-05-13T01:37:26.697Z,15.20
2023-05-13T01:39:53.086Z,15.20
2023-05-13T01:42:19.486Z,15.20
2023-05-13T01:44:45.968Z,15.20
2023-05-13T01:47:12.411Z,15.20
2023-05-13T01:49:38.798Z,15.10
2023-05-13T01:52:05.184Z,15.10
2023-05-13T01:54:31.671Z,15.10
2023-05-13T01:56:58.123Z,15.00
2023-05-13T01:59:24.529Z,15.00
2023-05-13T02:01:50.938Z,15.00
2023-05-13T02:04:17.363Z,15.00
2023-05-13T02:06:43.776Z,14.80
2023-05-13T02:09:10.207Z,14.80
2023-05-13T02:11:36.765Z,14.70
2023-05-13T02:14:03.469Z,14.60
2023-05-13T02:16:29.953Z,14.60
2023-05-13T02:18:56.488Z,14.60
2023-05-13T02:21:22.955Z,14.60
2023-05-13T02:23:49.381Z,14.60
2023-05-13T02:26:15.949Z,14.60
2023-05-13T02:28:42.406Z,14.60
2023-05-13T02:31:08.780Z,14.50
2023-05-13T02:33:35.259Z,14.50
2023-05-13T02:36:01.698Z,14.50
2023-05-13T02:38:28.099Z,14.50
2023-05-13T02:40:54.513Z,14.40
2023-05-13T02:43:20.981Z,14.50
2023-05-13T02:45:47.498Z,14.40
2023-05-13T02:48:13.908Z,14.40
2023-05-13T02:50:40.369Z,14.40
2023-05-13T02:53:06.881Z,14.40
2023-05-13T02:55:33.272Z,14.40
2023-05-13T02:57:59.684Z,14.30
2023-05-13T03:00:26.106Z,14.30
2023-05-13T03:02:52.594Z,14.20
2023-05-13T03:05:19.119Z,14.30
2023-05-13T03:07:45.835Z,14.20
2023-05-13T03:10:12.256Z,14.30
2023-05-13T03:12:38.655Z,14.30
2023-05-13T03:15:05.076Z,14.20
2023-05-13T03:17:31.502Z,14.20
2023-05-13T03:19:58.002Z,14.20
2023-05-13T03:22:24.456Z,14.20
2023-05-13T03:24:50.905Z,14.20
2023-05-13T03:27:17.309Z,14.10
2023-05-13T03:29:43.712Z,14.10
2023-05-13T03:32:10.095Z,14.10
2023-05-13T03:34:36.779Z,14.00
2023-05-13T03:37:03.476Z,14.00
2023-05-13T03:39:29.843Z,14.00
2023-05-13T03:41:56.303Z,14.00
2023-05-13T03:44:22.703Z,13.90
2023-05-13T03:46:49.174Z,13.90
2023-05-13T03:49:16.026Z,13.90
2023-05-13T03:51:42.508Z,13.80
2023-05-13T03:54:08.951Z,13.80
2023-05-13T03:56:35.385Z,13.90
2023-05-13T03:59:01.838Z,13.80
2023-05-13T04:01:28.272Z,13.70
2023-05-13T04:03:54.769Z,13.70
2023-05-13T04:06:21.222Z,13.80
2023-05-13T04:08:47.691Z,13.70
2023-05-13T04:11:14.127Z,13.60
2023-05-13T04:13:40.537Z,13.70
2023-05-13T04:16:06.984Z,13.70
2023-05-13T04:18:33.454Z,13.70
2023-05-13T04:20:59.943Z,13.70
2023-05-13T04:23:26.419Z,13.70
2023-05-13T04:25:52.897Z,13.70
2023-05-13T04:28:19.283Z,13.70
2023-05-13T04:30:45.876Z,13.70
2023-05-13T04:33:12.393Z,13.70
2023-05-13T04:35:39.018Z,13.80
2023-05-13T04:38:05.460Z,13.80
2023-05-13T04:40:31.880Z,13.70
2023-05-13T04:42:58.322Z,13.70
2023-05-13T04:45:24.771Z,13.70
2023-05-13T04:47:51.289Z,13.80
2023-05-13T04:50:17.762Z,13.90
2023-05-13T04:52:44.493Z,13.90
2023-05-13T04:55:10.942Z,13.90
2023-05-13T04:57:37.908Z,13.90
2023-05-13T05:00:04.489Z,14.00
2023-05-13T05:02:30.947Z,14.00
2023-05-13T05:04:57.389Z,14.10
2023-05-13T05:07:23.822Z,14.10
2023-05-13T05:09:50.289Z,14.10
2023-05-13T05:12:16.694Z,14.20
2023-05-13T05:14:43.086Z,14.20
2023-05-13T05:17:09.532Z,14.20
2023-05-13T05:19:36.078Z,14.10
2023-05-13T05:22:02.555Z,14.10
2023-05-13T05:24:29.012Z,14.00
2023-05-13T05:26:55.453Z,14.00
2023-05-13T05:29:21.901Z,14.10
2023-05-13T05:31:48.331Z,14.20
2023-05-13T05:34:14.824Z,14.10
2023-05-13T05:36:41.222Z,14.10
2023-05-13T05:39:07.679Z,14.20
2023-05-13T05:41:34.082Z,14.30
2023-05-13T05:44:00.477Z,14.30
2023-05-13T05:46:27.006Z,14.30
2023-05-13T05:48:53.453Z,14.30
2023-05-13T05:51:19.921Z,14.40
2023-05-13T05:53:46.382Z,14.40
2023-05-13T05:56:12.805Z,14.40
2023-05-13T05:58:39.205Z,14.40
2023-05-13T06:01:05.670Z,14.50
2023-05-13T06:03:32.278Z,14.50
2023-05-13T06:05:58.806Z,14.60
2023-05-13T06:08:25.273Z,14.60
2023-05-13T06:10:51.719Z,14.70
2023-05-13T06:13:18.149Z,14.80
2023-05-13T06:15:44.676Z,14.90
2023-05-13T06:18:11.073Z,15.00
2023-05-13T06:20:37.614Z,15.00
2023-05-13T06:23:04.225Z,15.10
2023-05-13T06:25:30.626Z,15.00
2023-05-13T06:27:57.040Z,15.10
2023-05-13T06:30:23.704Z,15.10
2023-05-13T06:32:57.842Z,15.20
2023-05-13T06:35:28.240Z,15.30
2023-05-13T06:37:54.632Z,15.30
2023-05-13T06:40:21.259Z,15.40
2023-05-13T06:42:47.781Z,15.30
2023-05-13T06:45:14.254Z,15.30
2023-05-13T06:47:40.739Z,15.40
2023-05-13T06:50:07.188Z,15.50
2023-05-13T06:52:33.666Z,15.60
2023-05-13T06:55:00.119Z,15.60
2023-05-13T06:57:38.848Z,15.60
2023-05-13T07:00:08.605Z,15.70
2023-05-13T07:02:35.112Z,15.80
2023-05-13T07:05:01.533Z,15.80
2023-05-13T07:07:27.922Z,16.00
2023-05-13T07:09:54.300Z,16.00
2023-05-13T07:12:20.710Z,16.10
2023-05-13T07:14:47.159Z,16.20
2023-05-13T07:17:13.641Z,16.40
2023-05-13T07:19:40.198Z,16.50
2023-05-13T07:22:06.880Z,16.60
2023-05-13T07:24:33.310Z,16.70
2023-05-13T07:26:59.696Z,16.80
2023-05-13T07:29:27.613Z,17.00
2023-05-13T07:31:54.115Z,17.20
2023-05-13T07:34:20.530Z,17.40
2023-05-13T07:36:47.004Z,17.50
2023-05-13T07:39:13.446Z,17.50
2023-05-13T07:41:39.905Z,17.70
2023-05-13T07:44:06.300Z,17.90
2023-05-13T07:46:32.768Z,18.10
2023-05-13T07:48:59.286Z,18.30
2023-05-13T07:51:25.734Z,18.40
2023-05-13T07:53:52.172Z,18.60
2023-05-13T07:56:18.565Z,18.80
2023-05-13T07:58:45.017Z,18.90
2023-05-13T08:01:11.467Z,19.10
2023-05-13T08:03:38.124Z,19.30
2023-05-13T08:06:04.713Z,19.60
2023-05-13T08:08:31.170Z,19.80
2023-05-13T08:10:57.633Z,20.10
2023-05-13T08:13:24.080Z,20.40
2023-05-13T08:15:50.556Z,20.60
2023-05-13T08:18:17.104Z,20.70
2023-05-13T08:20:43.540Z,20.80
2023-05-13T08:23:09.992Z,21.10
2023-05-13T08:25:36.427Z,21.40
2023-05-13T08:28:02.809Z,21.60
2023-05-13T08:30:29.257Z,21.80
2023-05-13T08:32:55.748Z,22.10
2023-05-13T08:35:22.349Z,22.30
2023-05-13T08:37:48.908Z,22.50
2023-05-13T08:40:15.314Z,22.80
2023-05-13T08:42:41.722Z,23.00
2023-05-13T08:45:08.187Z,23.20
2023-05-13T08:47:36.847Z,23.30
2023-05-13T08:50:03.641Z,23.50
2023-05-13T08:52:30.061Z,23.60
2023-05-13T08:54:56.505Z,23.90
2023-05-13T08:57:22.993Z,24.10
2023-05-13T08:59:49.431Z,24.40
2023-05-13T09:02:16.167Z,24.50
2023-05-13T09:04:42.724Z,24.60
2023-05-13T09:07:09.244Z,24.70
2023-05-13T09:09:35.702Z,24.70
2023-05-13T09:12:02.104Z,24.70
2023-05-13T09:14:28.561Z,24.60
2023-05-13T09:16:55.011Z,24.70
2023-05-13T09:19:21.600Z,24.70
2023-05-13T09:21:49.181Z,24.80
2023-05-13T09:24:15.761Z,25.10
2023-05-13T09:26:42.277Z,25.40
2023-05-13T09:29:08.898Z,25.50
2023-05-13T09:31:35.326Z,25.70
2023-05-13T09:34:01.725Z,25.90
2023-05-13T09:36:28.192Z,26.00
2023-05-13T09:38:54.578Z,26.20
2023-05-13T09:41:21.035Z,26.30
2023-05-13T09:43:47.417Z,26.40
2023-05-13T09:46:13.794Z,26.40
2023-05-13T09:48:40.425Z,26.60
2023-05-13T09:51:07.097Z,26.80
2023-05-13T09:53:33.563Z,27.00
2023-05-13T09:56:00.090Z,27.00
2023-05-13T09:58:26.678Z,27.00
2023-05-13T10:00:53.240Z,27.10
2023-05-13T10:03:19.739Z,27.20
2023-05-13T10:05:46.256Z,27.20
2023-05-13T10:08:12.712Z,27.30
2023-05-13T10:10:39.097Z,27.60
2023-05-13T10:13:05.558Z,27.60
2023-05-13T10:15:32.012Z,27.70
2023-05-13T10:17:58.467Z,27.70
2023-05-13T10:20:24.916Z,27.90
2023-05-13T10:22:51.386Z,28.20
2023-05-13T10:25:17.821Z,28.50
2023-05-13T10:27:44.256Z,28.40
2023-05-13T10:30:10.712Z,28.30
2023-05-13T10:32:37.168Z,28.40
2023-05-13T10:35:03.695Z,28.50
2023-05-13T10:37:30.101Z,28.80
2023-05-13T10:39:56.539Z,29.10
2023-05-13T10:42:22.974Z,29.40
2023-05-13T10:44:49.416Z,29.60
2023-05-13T10:47:16.126Z,29.70
2023-05-13T10:49:42.510Z,29.80
2023-05-13T10:52:09.543Z,29.80
2023-05-13T10:54:36.721Z,29.70
2023-05-13T10:57:03.377Z,29.60
2023-05-13T10:59:29.782Z,29.70
2023-05-13T11:01:56.228Z,29.80
2023-05-13T11:04:22.619Z,30.00
2023-05-13T11:06:49.049Z,30.30
2023-05-13T11:09:15.455Z,30.50
2023-05-13T11:11:41.972Z,30.60
2023-05-13T11:14:08.742Z,30.70
2023-05-13T11:16:35.444Z,30.80
2023-05-13T11:19:01.951Z,30.80
2023-05-13T11:21:28.354Z,30.80
2023-05-13T11:23:54.739Z,30.40
2023-05-13T11:26:21.174Z,29.80
2023-05-13T11:28:47.670Z,29.60
2023-05-13T11:31:14.059Z,29.80
2023-05-13T11:33:40.540Z,30.10
2023-05-13T11:36:07.137Z,30.70
2023-05-13T11:38:33.590Z,30.90
2023-05-13T11:40:59.989Z,30.40
2023-05-13T11:43:26.374Z,30.20
2023-05-13T11:45:52.820Z,30.20
2023-05-13T11:48:19.287Z,30.30
2023-05-13T11:50:45.924Z,30.40
2023-05-13T11:53:12.390Z,30.30
2023-05-13T11:55:38.797Z,29.70
2023-05-13T11:58:05.249Z,29.40
2023-05-13T12:00:31.656Z,29.50
2023-05-13T12:02:58.176Z,29.50
2023-05-13T12:05:24.990Z,29.80
2023-05-13T12:07:51.762Z,30.30
2023-05-13T12:10:18.164Z,30.80
2023-05-13T12:12:44.635Z,31.30
2023-05-13T12:15:11.035Z,31.20
2023-05-13T12:17:37.530Z,30.50
2023-05-13T12:20:04.068Z,30.40
2023-05-13T12:22:30.512Z,30.70
2023-05-13T12:24:56.969Z,31.20
2023-05-13T12:27:23.407Z,31.70
2023-05-13T12:29:49.860Z,31.40
2023-05-13T12:32:16.374Z,30.90
2023-05-13T12:34:42.805Z,30.50
2023-05-13T12:37:09.312Z,30.00
2023-05-13T12:39:35.747Z,30.20
2023-05-13T12:42:02.178Z,30.60
2023-05-13T12:44:28.636Z,31.10
2023-05-13T12:46:55.136Z,31.50
2023-05-13T12:49:21.644Z,31.40
2023-05-13T12:51:48.069Z,31.00
2023-05-13T12:54:14.459Z,30.70
2023-05-13T12:56:40.858Z,30.50
2023-05-13T12:59:07.551Z,30.70
2023-05-13T13:01:34.144Z,30.80
2023-05-13T13:04:00.990Z,31.10
2023-05-13T13:06:27.482Z,31.30
2023-05-13T13:08:53.908Z,31.40
2023-05-13T13:11:20.369Z,30.90
2023-05-13T13:13:47.016Z,30.50
2023-05-13T13:16:13.464Z,30.70
2023-05-13T13:18:39.927Z,31.20
2023-05-13T13:21:06.401Z,31.70
2023-05-13T13:23:32.779Z,32.00
2023-05-13T13:25:59.218Z,32.20
2023-05-13T13:28:25.688Z,31.80
2023-05-13T13:30:52.187Z,31.70
2023-05-13T13:33:18.665Z,31.50
2023-05-13T13:35:45.083Z,31.20
2023-05-13T13:38:11.477Z,30.90
2023-05-13T13:40:38.159Z,30.80
2023-05-13T13:43:04.559Z,30.50
2023-05-13T13:45:30.955Z,30.50
2023-05-13T13:47:57.352Z,30.60
2023-05-13T13:50:24.090Z,30.80
2023-05-13T13:52:50.588Z,31.10
2023-05-13T13:55:17.032Z,31.50
2023-05-13T13:57:43.484Z,31.90
2023-05-13T14:00:09.941Z,31.90
2023-05-13T14:02:36.475Z,32.10
2023-05-13T14:05:02.960Z,32.40
2023-05-13T14:07:29.607Z,32.40
2023-05-13T14:09:56.148Z,32.00
2023-05-13T14:12:22.659Z,31.30
2023-05-13T14:14:49.036Z,30.70
2023-05-13T14:17:15.529Z,30.20
2023-05-13T14:19:41.920Z,30.10
2023-05-13T14:22:08.291Z,30.40
2023-05-13T14:24:34.752Z,30.80
2023-05-13T14:27:01.170Z,31.30
2023-05-13T14:29:27.682Z,31.40
2023-05-13T14:31:54.218Z,31.50
2023-05-13T14:34:20.630Z,31.20
2023-05-13T14:36:47.334Z,30.60
2023-05-13T14:39:13.740Z,30.10
2023-05-13T14:41:40.169Z,30.20
2023-05-13T14:44:06.634Z,30.40
2023-05-13T14:46:33.302Z,30.30
2023-05-13T14:48:59.752Z,30.30
2023-05-13T14:51:26.215Z,30.40
2023-05-13T14:53:52.722Z,30.70
2023-05-13T14:56:19.156Z,31.00
2023-05-13T14:58:45.582Z,30.70
2023-05-13T15:01:12.002Z,30.40
2023-05-13T15:03:38.573Z,30.40
2023-05-13T15:06:05.050Z,30.50
2023-05-13T15:08:31.574Z,30.50
2023-05-13T15:10:57.998Z,30.40
2023-05-13T15:13:24.434Z,30.40
2023-05-13T15:15:50.838Z,30.40
2023-05-13T15:18:17.371Z,30.60
2023-05-13T15:20:43.841Z,30.80
2023-05-13T15:23:10.289Z,30.90
2023-05-13T15:25:36.885Z,30.80
2023-05-13T15:28:03.481Z,30.80
2023-05-13T15:30:29.892Z,30.90
2023-05-13T15:32:56.433Z,30.70
2023-05-13T15:35:22.971Z,30.40
2023-05-13T15:37:49.357Z,30.20
2023-05-13T15:40:15.802Z,30.20
2023-05-13T15:42:42.228Z,30.30
2023-05-13T15:45:08.632Z,30.40
2023-05-13T15:47:35.133Z,30.60
2023-05-13T15:50:01.601Z,30.80
2023-05-13T15:52:28.025Z,30.80
2023-05-13T15:54:54.489Z,30.60
2023-05-13T15:57:20.988Z,30.40
2023-05-13T15:59:47.385Z,30.30
2023-05-13T16:02:13.801Z,29.90
2023-05-13T16:04:40.393Z,29.50
2023-05-13T16:07:06.836Z,29.60
2023-05-13T16:09:33.259Z,29.80
2023-05-13T16:11:59.718Z,29.90
2023-05-13T16:14:26.124Z,29.90
2023-05-13T16:16:52.584Z,29.80
2023-05-13T16:19:19.056Z,29.60
2023-05-13T16:21:45.514Z,29.70
2023-05-13T16:24:11.927Z,29.80
2023-05-13T16:26:38.375Z,29.70
2023-05-13T16:29:04.862Z,29.40
2023-05-13T16:31:31.371Z,29.40
2023-05-13T16:33:57.814Z,29.30
2023-05-13T16:36:24.305Z,29.30
2023-05-13T16:38:50.683Z,29.30
2023-05-13T16:41:17.364Z,29.30
2023-05-13T16:43:43.798Z,29.40
2023-05-13T16:46:10.233Z,29.50
2023-05-13T16:48:36.767Z,29.40
2023-05-13T16:51:03.384Z,29.40
2023-05-13T16:53:29.812Z,29.20
2023-05-13T16:55:56.257Z,29.10
2023-05-13T16:58:22.728Z,29.20
2023-05-13T17:00:49.270Z,29.30
2023-05-13T17:03:16.198Z,29.30
2023-05-13T17:05:42.828Z,29.30
2023-05-13T17:08:09.290Z,29.30
2023-05-13T17:10:35.755Z,29.10
2023-05-13T17:13:02.172Z,29.00
2023-05-13T17:15:28.574Z,28.80
2023-05-13T17:17:55.067Z,28.70
2023-05-13T17:20:21.828Z,28.60
2023-05-13T17:22:48.600Z,28.60
2023-05-13T17:25:17.916Z,28.50
2023-05-13T17:27:44.325Z,28.40
2023-05-13T17:30:10.724Z,28.40
2023-05-13T17:32:37.189Z,28.20
2023-05-13T17:35:03.598Z,28.00
2023-05-13T17:37:29.968Z,27.90
2023-05-13T17:39:56.370Z,27.90
2023-05-13T17:42:22.785Z,27.80
2023-05-13T17:44:49.230Z,27.70
2023-05-13T17:47:15.664Z,27.70
2023-05-13T17:49:42.059Z,27.60
2023-05-13T17:52:08.518Z,27.50
2023-05-13T17:54:34.905Z,27.50
2023-05-13T17:57:01.271Z,27.30
2023-05-13T17:59:27.690Z,27.20
2023-05-13T18:01:54.161Z,27.10
2023-05-13T18:04:20.654Z,27.00
2023-05-13T18:06:47.291Z,26.80
2023-05-13T18:09:13.747Z,26.70
2023-05-13T18:11:40.195Z,26.60
2023-05-13T18:14:06.709Z,26.50
2023-05-13T18:16:33.241Z,26.50
2023-05-13T18:18:59.742Z,26.30
2023-05-13T18:21:26.214Z,26.20
2023-05-13T18:23:52.660Z,26.10
2023-05-13T18:26:19.179Z,26.00
2023-05-13T18:28:45.692Z,25.90
2023-05-13T18:31:12.185Z,25.90
2023-05-13T18:33:38.640Z,25.80
2023-05-13T18:36:05.126Z,25.70
2023-05-13T18:38:31.566Z,25.70
2023-05-13T18:40:58.111Z,25.70
2023-05-13T18:43:24.516Z,25.60
2023-05-13T18:45:51.018Z,25.40
2023-05-13T18:48:17.544Z,25.30
2023-05-13T18:50:43.971Z,25.30
2023-05-13T18:53:10.448Z,25.10
2023-05-13T18:55:36.854Z,24.90
2023-05-13T18:58:03.453Z,24.90
2023-05-13T19:00:29.902Z,24.70
2023-05-13T19:02:56.362Z,24.60
2023-05-13T19:05:22.877Z,24.60
2023-05-13T19:07:49.261Z,24.40
2023-05-13T19:10:15.836Z,24.40
2023-05-13T19:12:42.241Z,24.10
2023-05-13T19:15:08.660Z,24.10
2023-05-13T19:17:35.178Z,23.90
2023-05-13T19:20:01.613Z,23.80
2023-05-13T19:22:28.005Z,23.70
2023-05-13T19:24:54.440Z,23.60
2023-05-13T19:27:20.866Z,23.60
2023-05-13T19:29:47.247Z,23.50
2023-05-13T19:32:13.716Z,23.40
2023-05-13T19:34:40.197Z,23.30
2023-05-13T19:37:06.683Z,23.30
2023-05-13T19:39:33.094Z,23.30
2023-05-13T19:41:59.551Z,23.20
2023-05-13T19:44:25.942Z,23.00
2023-05-13T19:46:52.470Z,22.90
2023-05-13T19:49:18.964Z,22.90
2023-05-13T19:51:45.699Z,22.80
2023-05-13T19:54:12.149Z,22.80
2023-05-13T19:56:38.552Z,22.70
2023-05-13T19:59:04.980Z,22.70
2023-05-13T20:01:31.497Z,22.60
2023-05-13T20:03:57.968Z,22.50
2023-05-13T20:06:24.497Z,22.50
2023-05-13T20:08:50.909Z,22.40
2023-05-13T20:11:17.306Z,22.30
2023-05-13T20:13:43.740Z,22.20
2023-05-13T20:16:10.216Z,22.20
2023-05-13T20:18:36.827Z,22.10
2023-05-13T20:21:03.488Z,22.00
2023-05-13T20:23:29.907Z,21.80
2023-05-13T20:25:56.352Z,21.70
2023-05-13T20:28:22.807Z,21.60
2023-05-13T20:30:49.262Z,21.60
2023-05-13T20:33:15.758Z,21.50
2023-05-13T20:35:42.210Z,21.40
2023-05-13T20:38:08.614Z,21.40
2023-05-13T20:40:35.050Z,21.20
2023-05-13T20:43:01.497Z,21.10
2023-05-13T20:45:27.964Z,21.00
2023-05-13T20:47:54.414Z,21.00
2023-05-13T20:50:20.992Z,20.90
2023-05-13T20:52:47.634Z,20.80
2023-05-13T20:55:14.015Z,20.80
2023-05-13T20:57:40.482Z,20.80
2023-05-13T21:00:06.950Z,20.70
2023-05-13T21:02:33.429Z,20.70
2023-05-13T21:04:59.904Z,20.60
2023-05-13T21:07:26.282Z,20.60
2023-05-13T21:09:52.772Z,20.50
2023-05-13T21:12:19.181Z,20.50
2023-05-13T21:14:45.797Z,20.50
2023-05-13T21:17:12.183Z,20.50
2023-05-13T21:19:38.582Z,20.40
2023-05-13T21:22:05.041Z,20.30
2023-05-13T21:24:31.466Z,20.30
2023-05-13T21:26:57.900Z,20.10
2023-05-13T21:29:24.312Z,20.00
2023-05-13T21:31:50.753Z,19.90
2023-05-13T21:34:17.161Z,19.90
2023-05-13T21:36:43.587Z,19.90
2023-05-13T21:39:09.986Z,19.80
2023-05-13T21:41:36.516Z,19.80
2023-05-13T21:44:03.191Z,19.70
2023-05-13T21:46:29.720Z,19.70
2023-05-13T21:48:56.216Z,19.70
2023-05-13T21:51:22.694Z,19.50
2023-05-13T21:53:49.135Z,19.40
2023-05-13T21:56:15.721Z,19.40
2023-05-13T21:58:42.153Z,19.30
2023-05-13T22:01:08.695Z,19.30
2023-05-13T22:03:35.284Z,19.30
2023-05-13T22:06:01.749Z,19.20
2023-05-13T22:08:28.197Z,19.20
2023-05-13T22:10:54.671Z,19.10
2023-05-13T22:13:21.128Z,19.00
2023-05-13T22:15:47.574Z,19.00
2023-05-13T22:18:14.065Z,18.90
2023-05-13T22:20:40.530Z,18.70
2023-05-13T22:23:07.003Z,18.60
2023-05-13T22:25:33.408Z,18.50
2023-05-13T22:28:02.002Z,18.50
2023-05-13T22:30:28.459Z,18.50
2023-05-13T22:32:54.899Z,18.50
2023-05-13T22:35:21.397Z,18.50
2023-05-13T22:37:47.849Z,18.60
2023-05-13T22:40:14.274Z,18.60
2023-05-13T22:42:40.695Z,18.60
2023-05-13T22:45:07.113Z,18.60
2023-05-13T22:47:33.683Z,18.60
2023-05-13T22:50:00.220Z,18.60
2023-05-13T22:52:26.667Z,18.60
2023-05-13T22:54:53.077Z,18.50
2023-05-13T22:57:19.474Z,18.40
2023-05-13T22:59:45.926Z,18.30
2023-05-13T23:02:12.454Z,18.30
2023-05-13T23:04:38.974Z,18.20
2023-05-13T23:07:05.431Z,18.20
2023-05-13T23:09:31.867Z,18.10
2023-05-13T23:11:58.310Z,18.00
2023-05-13T23:14:24.702Z,18.00
2023-05-13T23:16:51.067Z,17.90
2023-05-13T23:19:17.505Z,17.90
2023-05-13T23:21:43.952Z,17.80
2023-05-13T23:24:10.409Z,17.80
2023-05-13T23:26:36.850Z,17.60
2023-05-13T23:29:03.379Z,17.50
2023-05-13T23:31:29.800Z,17.50
2023-05-13T23:33:56.217Z,17.50
2023-05-13T23:36:22.679Z,17.50
2023-05-13T23:38:49.061Z,17.40
2023-05-13T23:41:15.735Z,17.40
2023-05-13T23:43:42.188Z,17.40
2023-05-13T23:46:08.643Z,17.40
2023-05-13T23:48:35.100Z,17.40
2023-05-13T23:51:01.510Z,17.30
2023-05-13T23:53:27.958Z,17.30
2023-05-13T23:55:54.333Z,17.20
2023-05-13T23:58:20.781Z,17.20
